createdAt,value
2017-06-29T00:01:48.505Z,19.00
2017-06-29T00:04:14.532Z,19.00
2017-06-29T00:06:40.576Z,19.00
2017-06-29T00:09:06.745Z,19.00
2017-06-29T00:11:32.768Z,19.00
2017-06-29T00:13:58.792Z,18.90
2017-06-29T00:16:24.826Z,18.80
2017-06-29T00:18:51.617Z,18.80
2017-06-29T00:21:17.657Z,18.70
2017-06-29T00:23:43.701Z,18.70
2017-06-29T00:26:09.732Z,18.80
2017-06-29T00:28:35.776Z,18.90
2017-06-29T00:31:01.812Z,18.90
2017-06-29T00:33:27.817Z,18.80
2017-06-29T00:35:54.592Z,18.90
2017-06-29T00:38:20.632Z,18.90
2017-06-29T00:40:46.660Z,18.90
2017-06-29T00:43:13.441Z,18.70
2017-06-29T00:45:39.473Z,18.70
2017-06-29T00:48:05.525Z,18.60
2017-06-29T00:50:31.607Z,18.70
2017-06-29T00:53:04.680Z,18.70
2017-06-29T00:55:30.718Z,18.70
2017-06-29T00:57:56.775Z,18.70
2017-06-29T01:00:22.808Z,18.70
2017-06-29T01:02:48.869Z,18.70
2017-06-29T01:05:14.925Z,18.70
2017-06-29T01:07:41.736Z,18.60
2017-06-29T01:10:07.893Z,18.60
2017-06-29T01:12:33.945Z,18.60
2017-06-29T01:14:59.960Z,18.60
2017-06-29T01:17:25.973Z,18.60
2017-06-29T01:19:52.015Z,18.60
2017-06-29T01:22:18.012Z,18.50
2017-06-29T01:24:44.813Z,18.50
2017-06-29T01:27:10.873Z,18.50
2017-06-29T01:29:44.025Z,18.50
2017-06-29T01:32:10.804Z,18.50
2017-06-29T01:34:36.866Z,18.50
2017-06-29T01:37:03.637Z,18.50
2017-06-29T01:39:29.701Z,18.40
2017-06-29T01:41:55.752Z,18.40
2017-06-29T01:44:21.778Z,18.40
2017-06-29T01:46:47.866Z,18.40
2017-06-29T01:49:13.917Z,18.50
2017-06-29T01:51:40.722Z,18.40
2017-06-29T01:54:06.749Z,18.40
2017-06-29T01:56:33.619Z,18.40
2017-06-29T01:58:59.649Z,18.40
2017-06-29T02:01:25.692Z,18.50
2017-06-29T02:03:51.729Z,18.60
2017-06-29T02:06:17.749Z,18.60
2017-06-29T02:08:43.806Z,18.70
2017-06-29T02:11:09.854Z,18.60
2017-06-29T02:13:35.858Z,18.50
2017-06-29T02:16:02.626Z,18.50
2017-06-29T02:18:28.672Z,18.50
2017-06-29T02:20:54.715Z,18.50
2017-06-29T02:23:20.729Z,18.40
2017-06-29T02:25:46.753Z,18.40
2017-06-29T02:28:12.805Z,18.40
2017-06-29T02:30:38.841Z,18.30
2017-06-29T02:33:04.868Z,18.40
2017-06-29T02:35:30.900Z,18.30
2017-06-29T02:37:56.924Z,18.30
2017-06-29T02:40:22.937Z,18.40
2017-06-29T02:42:48.981Z,18.40
2017-06-29T02:45:15.019Z,18.40
2017-06-29T02:47:41.097Z,18.50
2017-06-29T02:50:07.873Z,18.60
2017-06-29T02:52:33.904Z,18.60
2017-06-29T02:54:59.936Z,18.60
2017-06-29T02:57:26.713Z,18.50
2017-06-29T02:59:52.712Z,18.50
2017-06-29T03:02:18.748Z,18.50
2017-06-29T03:04:44.785Z,18.50
2017-06-29T03:07:11.550Z,18.50
2017-06-29T03:09:37.585Z,18.40
2017-06-29T03:12:03.665Z,18.30
2017-06-29T03:14:29.677Z,18.30
2017-06-29T03:16:55.742Z,18.30
2017-06-29T03:19:22.533Z,18.20
2017-06-29T03:21:48.528Z,18.20
2017-06-29T03:24:14.553Z,18.20
2017-06-29T03:26:40.597Z,18.20
2017-06-29T03:29:06.648Z,18.20
2017-06-29T03:31:32.692Z,18.20
2017-06-29T03:33:58.762Z,18.20
2017-06-29T03:36:24.809Z,18.20
2017-06-29T03:38:50.866Z,18.20
2017-06-29T03:41:16.881Z,18.30
2017-06-29T03:43:42.945Z,18.30
2017-06-29T03:46:09.013Z,18.20
2017-06-29T03:48:35.137Z,18.20
2017-06-29T03:51:01.173Z,18.30
2017-06-29T03:53:27.193Z,18.20
2017-06-29T03:55:53.977Z,18.20
2017-06-29T03:58:20.023Z,18.20
2017-06-29T04:00:46.074Z,18.20
2017-06-29T04:03:12.116Z,18.20
2017-06-29T04:05:38.165Z,18.20
2017-06-29T04:08:04.921Z,18.20
2017-06-29T04:10:30.953Z,18.20
2017-06-29T04:12:56.968Z,18.30
2017-06-29T04:15:23.029Z,18.20
2017-06-29T04:17:49.087Z,18.20
2017-06-29T04:20:15.119Z,18.20
2017-06-29T04:22:41.889Z,18.20
2017-06-29T04:25:07.961Z,18.20
2017-06-29T04:27:34.725Z,18.40
2017-06-29T04:30:00.743Z,18.30
2017-06-29T04:32:26.766Z,18.40
2017-06-29T04:34:52.805Z,18.40
2017-06-29T04:37:18.843Z,18.40
2017-06-29T04:39:44.983Z,18.30
2017-06-29T04:42:11.050Z,18.40
2017-06-29T04:44:37.069Z,18.30
2017-06-29T04:47:03.865Z,18.40
2017-06-29T04:49:29.897Z,18.40
2017-06-29T04:51:55.929Z,18.50
2017-06-29T04:54:21.944Z,18.50
2017-06-29T04:56:48.130Z,18.60
2017-06-29T04:59:14.169Z,18.60
2017-06-29T05:01:40.201Z,18.50
2017-06-29T05:04:06.262Z,18.50
2017-06-29T05:06:32.318Z,18.60
2017-06-29T05:08:58.348Z,18.70
2017-06-29T05:11:24.393Z,18.80
2017-06-29T05:13:50.487Z,18.80
2017-06-29T05:16:16.545Z,19.00
2017-06-29T05:18:42.561Z,19.00
2017-06-29T05:21:08.593Z,19.10
2017-06-29T05:23:36.858Z,19.20
2017-06-29T05:26:02.931Z,19.40
2017-06-29T05:28:28.995Z,19.40
2017-06-29T05:30:55.027Z,19.40
2017-06-29T05:33:21.057Z,19.40
2017-06-29T05:35:47.113Z,19.50
2017-06-29T05:38:13.151Z,19.50
2017-06-29T05:40:39.192Z,19.50
2017-06-29T05:43:05.237Z,19.60
2017-06-29T05:45:32.000Z,19.80
2017-06-29T05:47:58.060Z,19.80
2017-06-29T05:50:24.165Z,19.90
2017-06-29T05:52:50.960Z,20.10
2017-06-29T05:55:16.988Z,20.10
2017-06-29T05:57:43.030Z,20.20
2017-06-29T06:00:09.816Z,20.40
2017-06-29T06:02:35.850Z,20.40
2017-06-29T06:05:01.897Z,20.40
2017-06-29T06:07:27.932Z,20.50
2017-06-29T06:09:53.993Z,20.50
2017-06-29T06:12:20.779Z,20.60
2017-06-29T06:14:46.848Z,20.60
2017-06-29T06:17:12.877Z,20.70
2017-06-29T06:19:40.408Z,20.60
2017-06-29T06:22:06.449Z,20.60
2017-06-29T06:24:32.506Z,20.70
2017-06-29T06:26:59.273Z,20.80
2017-06-29T06:29:25.302Z,20.80
2017-06-29T06:31:51.342Z,20.80
2017-06-29T06:34:18.113Z,21.00
2017-06-29T06:36:44.149Z,21.00
2017-06-29T06:39:10.173Z,21.10
2017-06-29T06:41:36.939Z,21.30
2017-06-29T06:44:02.983Z,21.20
2017-06-29T06:46:29.009Z,21.40
2017-06-29T06:48:55.034Z,21.50
2017-06-29T06:51:21.804Z,21.80
2017-06-29T06:53:47.837Z,21.80
2017-06-29T06:56:13.868Z,22.00
2017-06-29T06:58:40.666Z,22.30
2017-06-29T07:01:06.693Z,22.20
2017-06-29T07:03:32.722Z,22.20
2017-06-29T07:05:58.793Z,22.30
2017-06-29T07:08:24.833Z,22.30
2017-06-29T07:10:51.605Z,22.40
2017-06-29T07:13:17.628Z,22.40
2017-06-29T07:15:43.674Z,22.50
2017-06-29T07:18:10.461Z,22.50
2017-06-29T07:20:36.520Z,22.40
2017-06-29T07:23:02.565Z,22.40
2017-06-29T07:25:28.593Z,22.40
2017-06-29T07:27:54.625Z,22.40
2017-06-29T07:30:21.409Z,22.40
2017-06-29T07:32:47.449Z,22.50
2017-06-29T07:35:13.521Z,22.50
2017-06-29T07:37:39.580Z,22.60
2017-06-29T07:40:06.372Z,22.60
2017-06-29T07:42:32.428Z,22.60
2017-06-29T07:44:59.232Z,22.90
2017-06-29T07:47:25.356Z,22.90
2017-06-29T07:49:51.392Z,23.20
2017-06-29T07:52:17.429Z,23.30
2017-06-29T07:54:43.480Z,23.40
2017-06-29T07:57:10.265Z,23.40
2017-06-29T07:59:36.316Z,23.40
2017-06-29T08:02:02.369Z,23.40
2017-06-29T08:04:28.407Z,23.30
2017-06-29T08:06:54.425Z,23.30
2017-06-29T08:09:20.468Z,23.30
2017-06-29T08:11:47.240Z,23.40
2017-06-29T08:14:13.289Z,23.40
2017-06-29T08:16:39.313Z,23.60
2017-06-29T08:19:06.077Z,23.90
2017-06-29T08:21:32.108Z,23.90
2017-06-29T08:23:58.132Z,24.00
2017-06-29T08:26:24.184Z,24.00
2017-06-29T08:28:50.237Z,23.90
2017-06-29T08:31:16.271Z,23.80
2017-06-29T08:33:43.063Z,23.90
2017-06-29T08:36:09.089Z,23.90
2017-06-29T08:38:35.148Z,24.00
2017-06-29T08:41:01.192Z,24.10
2017-06-29T08:43:27.220Z,24.20
2017-06-29T08:45:54.005Z,24.50
2017-06-29T08:48:20.104Z,24.50
2017-06-29T08:50:46.136Z,24.70
2017-06-29T08:53:12.150Z,25.00
2017-06-29T08:55:38.196Z,24.90
2017-06-29T08:58:04.984Z,25.10
2017-06-29T09:00:31.020Z,25.00
2017-06-29T09:02:57.041Z,25.10
2017-06-29T09:05:23.804Z,25.40
2017-06-29T09:07:49.825Z,25.30
2017-06-29T09:10:15.872Z,25.40
2017-06-29T09:12:41.905Z,25.40
2017-06-29T09:15:07.933Z,25.50
2017-06-29T09:17:33.977Z,25.60
2017-06-29T09:20:00.004Z,25.60
2017-06-29T09:22:26.029Z,25.70
2017-06-29T09:24:52.793Z,25.90
2017-06-29T09:27:18.876Z,25.90
2017-06-29T09:29:52.000Z,25.90
2017-06-29T09:32:18.024Z,26.20
2017-06-29T09:34:44.052Z,26.60
2017-06-29T09:37:10.849Z,26.80
2017-06-29T09:39:36.874Z,26.80
2017-06-29T09:42:03.653Z,26.80
2017-06-29T09:44:29.712Z,26.70
2017-06-29T09:46:55.775Z,26.80
2017-06-29T09:49:21.823Z,27.00
2017-06-29T09:51:48.633Z,27.20
2017-06-29T09:54:14.667Z,27.20
2017-06-29T09:56:40.818Z,27.40
2017-06-29T09:59:06.935Z,27.60
2017-06-29T10:01:32.968Z,27.60
2017-06-29T10:03:58.996Z,27.40
2017-06-29T10:06:25.786Z,27.30
2017-06-29T10:08:51.813Z,27.30
2017-06-29T10:11:17.856Z,27.20
2017-06-29T10:13:44.625Z,26.90
2017-06-29T10:16:10.701Z,26.90
2017-06-29T10:18:36.839Z,26.90
2017-06-29T10:21:02.885Z,27.00
2017-06-29T10:23:28.988Z,27.20
2017-06-29T10:25:55.021Z,27.50
2017-06-29T10:28:21.069Z,27.90
2017-06-29T10:30:47.125Z,28.20
2017-06-29T10:33:13.186Z,28.70
2017-06-29T10:35:39.849Z,29.20
2017-06-29T10:38:05.994Z,29.10
2017-06-29T10:40:32.780Z,28.60
2017-06-29T10:42:58.844Z,28.60
2017-06-29T10:45:24.864Z,28.90
2017-06-29T10:47:50.929Z,29.20
2017-06-29T10:50:17.713Z,29.20
2017-06-29T10:52:43.756Z,29.20
2017-06-29T10:55:09.781Z,29.10
2017-06-29T10:57:36.561Z,28.60
2017-06-29T11:00:02.631Z,28.50
2017-06-29T11:02:28.673Z,28.80
2017-06-29T11:04:54.760Z,29.20
2017-06-29T11:07:21.002Z,29.10
2017-06-29T11:09:47.929Z,29.00
2017-06-29T11:12:13.965Z,29.40
2017-06-29T11:14:39.988Z,29.70
2017-06-29T11:17:06.013Z,30.20
2017-06-29T11:19:32.793Z,30.20
2017-06-29T11:21:58.824Z,30.20
2017-06-29T11:24:24.851Z,29.90
2017-06-29T11:26:51.620Z,29.40
2017-06-29T11:29:17.672Z,29.40
2017-06-29T11:31:43.730Z,29.20
2017-06-29T11:34:09.839Z,29.00
2017-06-29T11:36:35.880Z,28.60
2017-06-29T11:39:01.949Z,28.20
2017-06-29T11:41:27.997Z,28.00
2017-06-29T11:43:54.033Z,27.80
2017-06-29T11:46:20.149Z,27.60
2017-06-29T11:48:46.173Z,27.50
2017-06-29T11:51:12.939Z,27.60
2017-06-29T11:53:38.989Z,27.60
2017-06-29T11:56:05.757Z,28.10
2017-06-29T11:58:31.794Z,28.10
2017-06-29T12:00:57.856Z,28.30
2017-06-29T12:03:23.888Z,28.50
2017-06-29T12:05:49.949Z,28.90
2017-06-29T12:08:15.965Z,30.00
2017-06-29T12:10:41.984Z,30.60
2017-06-29T12:13:08.760Z,30.60
2017-06-29T12:15:34.823Z,30.50
2017-06-29T12:18:00.875Z,30.50
2017-06-29T12:20:26.938Z,30.50
2017-06-29T12:22:53.057Z,30.10
2017-06-29T12:25:19.142Z,29.60
2017-06-29T12:27:45.157Z,29.20
2017-06-29T12:30:11.960Z,29.10
2017-06-29T12:32:38.005Z,29.10
2017-06-29T12:35:04.781Z,29.10
2017-06-29T12:37:30.833Z,29.10
2017-06-29T12:39:57.640Z,28.70
2017-06-29T12:42:23.673Z,28.70
2017-06-29T12:44:49.689Z,28.40
2017-06-29T12:47:15.789Z,28.20
2017-06-29T12:49:42.557Z,28.00
2017-06-29T12:52:08.589Z,28.00
2017-06-29T12:54:34.649Z,28.20
2017-06-29T12:57:00.726Z,28.20
2017-06-29T12:59:27.497Z,28.70
2017-06-29T13:01:53.528Z,28.70
2017-06-29T13:04:19.589Z,28.90
2017-06-29T13:06:45.653Z,29.10
2017-06-29T13:09:11.684Z,29.50
2017-06-29T13:11:37.709Z,30.10
2017-06-29T13:14:04.497Z,30.80
2017-06-29T13:16:30.570Z,30.70
2017-06-29T13:18:56.625Z,31.00
2017-06-29T13:21:22.653Z,31.10
2017-06-29T13:23:48.689Z,31.10
2017-06-29T13:26:14.741Z,31.60
2017-06-29T13:28:40.793Z,32.50
2017-06-29T13:31:07.565Z,33.40
2017-06-29T13:33:33.628Z,33.30
2017-06-29T13:35:59.665Z,33.70
2017-06-29T13:38:25.745Z,34.20
2017-06-29T13:40:51.784Z,34.20
2017-06-29T13:43:17.824Z,33.70
2017-06-29T13:45:43.864Z,33.40
2017-06-29T13:48:10.664Z,33.20
2017-06-29T13:50:36.706Z,33.20
2017-06-29T13:53:03.465Z,32.10
2017-06-29T13:55:29.556Z,32.00
2017-06-29T13:57:55.580Z,31.60
2017-06-29T14:00:21.607Z,31.20
2017-06-29T14:02:47.644Z,31.20
2017-06-29T14:05:13.666Z,31.70
2017-06-29T14:07:40.459Z,31.80
2017-06-29T14:10:06.517Z,31.80
2017-06-29T14:12:32.556Z,31.60
2017-06-29T14:14:58.585Z,31.30
2017-06-29T14:17:24.643Z,31.20
2017-06-29T14:19:50.707Z,30.90
2017-06-29T14:22:16.764Z,30.50
2017-06-29T14:24:42.785Z,30.30
2017-06-29T14:27:08.843Z,30.10
2017-06-29T14:29:34.872Z,30.30
2017-06-29T14:32:01.645Z,30.40
2017-06-29T14:34:27.701Z,30.40
2017-06-29T14:36:54.504Z,29.80
2017-06-29T14:39:20.568Z,29.70
2017-06-29T14:41:46.593Z,29.50
2017-06-29T14:44:12.632Z,29.10
2017-06-29T14:46:38.676Z,28.80
2017-06-29T14:49:05.453Z,28.30
2017-06-29T14:51:31.488Z,28.20
2017-06-29T14:53:57.528Z,28.10
2017-06-29T14:56:23.568Z,27.90
2017-06-29T14:58:49.617Z,27.70
2017-06-29T15:01:15.659Z,27.50
2017-06-29T15:03:41.684Z,27.30
2017-06-29T15:06:07.706Z,27.10
2017-06-29T15:08:33.732Z,27.00
2017-06-29T15:10:59.785Z,26.80
2017-06-29T15:13:26.564Z,26.40
2017-06-29T15:15:52.641Z,26.30
2017-06-29T15:18:18.681Z,26.20
2017-06-29T15:20:44.741Z,26.00
2017-06-29T15:23:10.812Z,25.90
2017-06-29T15:25:36.832Z,25.70
2017-06-29T15:28:03.004Z,25.60
2017-06-29T15:30:29.057Z,25.60
2017-06-29T15:32:55.116Z,25.40
2017-06-29T15:35:21.177Z,25.30
2017-06-29T15:37:47.964Z,25.40
2017-06-29T15:40:14.001Z,25.30
2017-06-29T15:42:40.035Z,25.30
2017-06-29T15:45:06.093Z,25.30
2017-06-29T15:47:32.145Z,25.10
2017-06-29T15:49:58.933Z,25.10
2017-06-29T15:52:24.960Z,25.00
2017-06-29T15:54:51.016Z,25.10
2017-06-29T15:57:17.072Z,25.10
2017-06-29T15:59:43.132Z,25.00
2017-06-29T16:02:09.177Z,25.00
2017-06-29T16:04:35.224Z,25.10
2017-06-29T16:07:02.053Z,25.20
2017-06-29T16:09:28.845Z,25.20
2017-06-29T16:11:54.904Z,25.20
2017-06-29T16:14:20.973Z,25.20
2017-06-29T16:16:47.024Z,25.20
2017-06-29T16:19:13.056Z,25.10
2017-06-29T16:21:39.121Z,25.10
2017-06-29T16:24:05.280Z,25.10
2017-06-29T16:26:31.317Z,25.10
2017-06-29T16:28:57.417Z,25.10
2017-06-29T16:31:23.469Z,25.00
2017-06-29T16:33:50.280Z,24.90
2017-06-29T16:36:16.308Z,24.90
2017-06-29T16:38:42.396Z,24.80
2017-06-29T16:41:08.429Z,24.70
2017-06-29T16:43:34.484Z,24.70
2017-06-29T16:46:00.513Z,24.60
2017-06-29T16:48:26.574Z,24.50
2017-06-29T16:50:52.600Z,24.40
2017-06-29T16:53:18.636Z,24.40
2017-06-29T16:55:44.694Z,24.20
2017-06-29T16:58:10.741Z,24.20
2017-06-29T17:00:36.789Z,24.20
2017-06-29T17:03:02.835Z,24.10
2017-06-29T17:05:28.873Z,24.00
2017-06-29T17:07:54.910Z,23.90
2017-06-29T17:10:21.688Z,23.70
2017-06-29T17:12:47.717Z,23.80
2017-06-29T17:15:13.773Z,23.60
2017-06-29T17:17:39.876Z,23.50
2017-06-29T17:20:05.962Z,23.40
2017-06-29T17:22:32.757Z,23.00
2017-06-29T17:24:58.833Z,22.90
2017-06-29T17:27:24.925Z,22.90
2017-06-29T17:29:51.723Z,22.60
2017-06-29T17:32:17.761Z,22.60
2017-06-29T17:34:43.836Z,22.50
2017-06-29T17:37:09.868Z,22.40
2017-06-29T17:39:35.932Z,22.30
2017-06-29T17:42:01.965Z,22.10
2017-06-29T17:44:28.014Z,22.10
2017-06-29T17:46:54.064Z,22.00
2017-06-29T17:49:20.094Z,22.00
2017-06-29T17:51:46.145Z,21.90
2017-06-29T17:54:12.180Z,21.90
2017-06-29T17:56:38.261Z,21.80
2017-06-29T17:59:05.072Z,21.60
2017-06-29T18:01:31.104Z,21.60
2017-06-29T18:03:57.129Z,21.60
2017-06-29T18:06:23.173Z,21.40
2017-06-29T18:08:49.229Z,21.30
2017-06-29T18:11:15.256Z,21.30
2017-06-29T18:13:41.285Z,21.30
2017-06-29T18:16:07.343Z,21.20
2017-06-29T18:18:33.376Z,21.10
2017-06-29T18:20:59.421Z,21.10
2017-06-29T18:23:25.489Z,21.00
2017-06-29T18:25:51.529Z,21.00
2017-06-29T18:28:24.540Z,20.90
2017-06-29T18:30:51.340Z,20.70
2017-06-29T18:33:17.381Z,20.60
2017-06-29T18:35:44.147Z,20.70
2017-06-29T18:38:10.200Z,20.60
2017-06-29T18:40:36.230Z,20.50
2017-06-29T18:43:03.000Z,20.40
2017-06-29T18:45:29.021Z,20.40
2017-06-29T18:47:55.060Z,20.30
2017-06-29T18:50:21.853Z,20.30
2017-06-29T18:52:47.919Z,20.20
2017-06-29T18:55:13.961Z,20.20
2017-06-29T18:57:40.021Z,20.10
2017-06-29T19:00:06.115Z,20.10
2017-06-29T19:02:32.905Z,20.00
2017-06-29T19:04:58.956Z,20.00
2017-06-29T19:07:25.729Z,19.80
2017-06-29T19:09:51.809Z,19.80
2017-06-29T19:12:18.600Z,19.70
2017-06-29T19:14:44.645Z,19.70
2017-06-29T19:17:10.693Z,19.60
2017-06-29T19:19:36.720Z,19.60
2017-06-29T19:22:02.839Z,19.60
2017-06-29T19:24:28.891Z,19.50
2017-06-29T19:27:01.829Z,19.50
2017-06-29T19:29:27.886Z,19.50
2017-06-29T19:31:53.926Z,19.50
2017-06-29T19:34:19.950Z,19.50
2017-06-29T19:36:46.084Z,19.40
2017-06-29T19:39:12.877Z,19.30
2017-06-29T19:41:39.028Z,19.20
2017-06-29T19:44:05.153Z,19.30
2017-06-29T19:46:32.428Z,19.20
2017-06-29T19:48:59.170Z,19.30
2017-06-29T19:51:25.425Z,19.30
2017-06-29T19:53:51.532Z,19.30
2017-06-29T19:56:17.554Z,19.30
2017-06-29T19:58:43.664Z,19.30
2017-06-29T20:01:09.820Z,19.30
2017-06-29T20:03:35.976Z,19.20
2017-06-29T20:06:02.134Z,19.20
2017-06-29T20:08:28.359Z,19.10
2017-06-29T20:10:54.435Z,19.10
2017-06-29T20:13:20.502Z,19.10
2017-06-29T20:15:47.285Z,19.10
2017-06-29T20:18:13.328Z,19.10
2017-06-29T20:20:40.120Z,19.00
2017-06-29T20:23:06.174Z,19.00
2017-06-29T20:25:32.948Z,18.80
2017-06-29T20:27:59.005Z,18.80
2017-06-29T20:30:25.044Z,18.80
2017-06-29T20:32:51.090Z,18.70
2017-06-29T20:35:32.149Z,18.70
2017-06-29T20:37:58.201Z,18.70
2017-06-29T20:40:24.237Z,18.70
2017-06-29T20:42:50.267Z,18.60
2017-06-29T20:45:16.310Z,18.50
2017-06-29T20:47:43.104Z,18.40
2017-06-29T20:50:09.136Z,18.40
2017-06-29T20:52:35.200Z,18.40
2017-06-29T20:55:01.233Z,18.40
2017-06-29T20:57:27.282Z,18.30
2017-06-29T20:59:53.309Z,18.30
2017-06-29T21:02:19.352Z,18.30
2017-06-29T21:04:45.405Z,18.10
2017-06-29T21:07:12.193Z,18.10
2017-06-29T21:09:38.221Z,18.00
2017-06-29T21:12:04.243Z,18.00
2017-06-29T21:14:31.020Z,17.90
2017-06-29T21:16:57.054Z,17.90
2017-06-29T21:19:23.112Z,17.80
2017-06-29T21:21:49.157Z,17.80
2017-06-29T21:24:15.206Z,17.80
2017-06-29T21:26:41.981Z,17.80
2017-06-29T21:29:08.043Z,17.80
2017-06-29T21:31:34.832Z,17.80
2017-06-29T21:34:00.880Z,17.80
2017-06-29T21:36:27.713Z,17.70
2017-06-29T21:38:54.503Z,17.60
2017-06-29T21:41:20.565Z,17.60
2017-06-29T21:43:47.097Z,17.60
2017-06-29T21:46:13.153Z,17.60
2017-06-29T21:48:39.189Z,17.60
2017-06-29T21:51:05.988Z,17.50
2017-06-29T21:53:32.018Z,17.50
2017-06-29T21:55:59.802Z,17.50
2017-06-29T21:58:25.850Z,17.40
2017-06-29T22:00:51.893Z,17.40
2017-06-29T22:03:17.943Z,17.30
2017-06-29T22:05:43.976Z,17.30
2017-06-29T22:08:10.014Z,17.30
2017-06-29T22:10:36.042Z,17.30
2017-06-29T22:13:02.145Z,17.30
2017-06-29T22:15:28.188Z,17.30
2017-06-29T22:17:54.633Z,17.30
2017-06-29T22:20:20.668Z,17.20
2017-06-29T22:22:47.479Z,17.30
2017-06-29T22:25:13.533Z,17.30
2017-06-29T22:27:39.572Z,17.20
2017-06-29T22:30:05.613Z,17.10
2017-06-29T22:32:32.389Z,17.10
2017-06-29T22:34:58.440Z,17.10
2017-06-29T22:37:25.213Z,17.00
2017-06-29T22:39:51.274Z,17.00
2017-06-29T22:42:17.305Z,17.00
2017-06-29T22:44:43.337Z,17.00
2017-06-29T22:47:09.401Z,17.00
2017-06-29T22:49:35.470Z,17.00
2017-06-29T22:52:01.500Z,17.10
2017-06-29T22:54:27.520Z,17.10
2017-06-29T22:56:53.573Z,17.10
2017-06-29T22:59:19.592Z,17.10
2017-06-29T23:01:45.624Z,17.10
2017-06-29T23:04:11.718Z,17.00
2017-06-29T23:06:37.757Z,17.00
2017-06-29T23:09:03.821Z,17.00
2017-06-29T23:11:29.845Z,17.00
2017-06-29T23:13:55.868Z,17.00
2017-06-29T23:16:21.896Z,17.00
2017-06-29T23:18:47.929Z,17.00
2017-06-29T23:21:14.689Z,17.00
2017-06-29T23:23:40.753Z,17.00
2017-06-29T23:26:06.771Z,17.00
2017-06-29T23:28:33.540Z,17.00
2017-06-29T23:30:59.602Z,16.90
2017-06-29T23:33:25.665Z,17.00
2017-06-29T23:35:51.684Z,17.00
2017-06-29T23:38:17.704Z,17.00
2017-06-29T23:40:43.732Z,17.00
2017-06-29T23:43:09.777Z,17.10
2017-06-29T23:45:35.849Z,17.00
2017-06-29T23:48:01.917Z,16.90
2017-06-29T23:50:28.074Z,16.90
2017-06-29T23:52:54.113Z,16.90
2017-06-29T23:55:20.127Z,16.90
2017-06-29T23:57:46.165Z,16.90
